Time;durP1;ratioP1;P1;durP2;ratioP2;P2;SDS_P1;SDS_P2;PMS_P1;PMS_P2;Temp;Humidity;BMP_temperature;BMP_pressure;BME280_temperature;BME280_humidity;BME280_pressure;Samples;Min_cycle;Max_cycle;Signal;HPM_P1;HPM_P2
2021/03/02 00:00:15;;;;;;;56.67;29.58;;;;;;;;;;5017742;28;20120;-69
2021/03/02 00:02:42;;;;;;;59.42;29.80;;;;;;;;;;5026970;28;20025;-69
2021/03/02 00:05:12;;;;;;;62.13;31.08;;;;;;;;;;5026649;28;20022;-69
2021/03/02 00:07:38;;;;;;;56.80;27.75;;;;;;;;;;5023295;28;20025;-69
2021/03/02 00:10:08;;;;;;;55.65;29.98;;;;;;;;;;5034154;28;20543;-69
2021/03/02 00:12:35;;;;;;;54.78;25.40;;;;;;;;;;5018886;28;20026;-69
2021/03/02 00:15:01;;;;;;;58.28;32.50;;;;;;;;;;5023053;28;20048;-69
2021/03/02 00:17:56;;;;;;;57.75;29.33;;;;;;;;;;5017830;28;20026;-69
2021/03/02 00:20:23;;;;;;;61.90;32.20;;;;;;;;;;5017021;28;20096;-70
2021/03/02 00:23:12;;;;;;;63.47;30.63;;;;;;;;;;5027426;28;20029;-69
2021/03/02 00:25:40;;;;;;;56.40;27.65;;;;;;;;;;5017092;28;20029;-70
2021/03/02 00:28:07;;;;;;;60.17;29.45;;;;;;;;;;5028937;28;20052;-69
2021/03/02 00:30:34;;;;;;;62.97;29.92;;;;;;;;;;5025594;28;20021;-69
2021/03/02 00:33:01;;;;;;;60.97;29.38;;;;;;;;;;5024099;28;20071;-69
2021/03/02 00:35:27;;;;;;;56.75;28.08;;;;;;;;;;5029286;28;20033;-69
2021/03/02 00:37:54;;;;;;;57.42;28.40;;;;;;;;;;5051703;28;20375;-69
2021/03/02 00:40:20;;;;;;;66.88;30.08;;;;;;;;;;5024799;28;20025;-70
2021/03/02 00:42:47;;;;;;;57.53;29.05;;;;;;;;;;5031815;28;20036;-69
2021/03/02 00:45:13;;;;;;;63.05;29.20;;;;;;;;;;5033923;28;20119;-69
2021/03/02 00:47:39;;;;;;;63.22;27.42;;;;;;;;;;5040946;28;20097;-69
2021/03/02 00:50:06;;;;;;;59.72;30.98;;;;;;;;;;5028956;28;20457;-69
2021/03/02 00:52:32;;;;;;;70.72;31.95;;;;;;;;;;5019204;28;20134;-69
2021/03/02 00:54:58;;;;;;;61.67;28.73;;;;;;;;;;5030643;28;20049;-70
2021/03/02 00:57:24;;;;;;;63.45;28.92;;;;;;;;;;5039939;28;20025;-69
2021/03/02 00:59:50;;;;;;;64.32;29.65;;;;;;;;;;5028906;28;20108;-69
2021/03/02 01:02:16;;;;;;;61.85;30.25;;;;;;;;;;5030928;28;20076;-69
2021/03/02 01:04:42;;;;;;;65.60;31.27;;;;;;;;;;5032188;28;20034;-69
2021/03/02 01:07:08;;;;;;;65.40;31.80;;;;;;;;;;5026835;28;20484;-69
2021/03/02 01:09:34;;;;;;;64.60;31.25;;;;;;;;;;5024753;28;20045;-69
2021/03/02 01:12:01;;;;;;;61.78;32.40;;;;;;;;;;5019986;28;20021;-69
2021/03/02 01:14:28;;;;;;;62.13;32.20;;;;;;;;;;5017711;28;20026;-70
2021/03/02 01:16:54;;;;;;;63.25;30.63;;;;;;;;;;5033729;28;20037;-69
2021/03/02 01:19:21;;;;;;;66.30;31.92;;;;;;;;;;5026498;28;20029;-69
2021/03/02 01:21:47;;;;;;;60.97;29.60;;;;;;;;;;5019782;28;20022;-69
2021/03/02 01:24:13;;;;;;;68.93;33.47;;;;;;;;;;5047466;28;20086;-70
2021/03/02 01:26:39;;;;;;;61.47;28.48;;;;;;;;;;5021743;28;20068;-69
2021/03/02 01:29:05;;;;;;;59.42;30.92;;;;;;;;;;5046431;28;20021;-70
2021/03/02 01:31:31;;;;;;;66.22;30.20;;;;;;;;;;5027330;28;20067;-69
2021/03/02 01:33:57;;;;;;;65.47;31.17;;;;;;;;;;5052685;28;20064;-69
2021/03/02 01:36:23;;;;;;;70.20;30.85;;;;;;;;;;5036451;28;20026;-69
2021/03/02 01:38:49;;;;;;;64.18;32.80;;;;;;;;;;5028900;28;20021;-69
2021/03/02 01:41:16;;;;;;;65.35;32.00;;;;;;;;;;5024795;28;20495;-69
2021/03/02 01:43:42;;;;;;;69.00;32.80;;;;;;;;;;5021590;28;20075;-69
2021/03/02 01:46:08;;;;;;;67.40;30.90;;;;;;;;;;5031942;28;20120;-69
2021/03/02 01:48:34;;;;;;;66.60;30.23;;;;;;;;;;5022208;28;20777;-69
2021/03/02 01:51:01;;;;;;;67.95;31.67;;;;;;;;;;5026228;28;20026;-70
2021/03/02 01:53:27;;;;;;;66.60;30.98;;;;;;;;;;5029067;28;20578;-70
2021/03/02 01:55:53;;;;;;;64.53;32.45;;;;;;;;;;5046032;28;20126;-69
2021/03/02 01:58:19;;;;;;;62.42;31.55;;;;;;;;;;5022700;28;20025;-69
2021/03/02 02:00:46;;;;;;;67.25;32.80;;;;;;;;;;5023506;28;20076;-69
2021/03/02 02:03:18;;;;;;;66.90;32.45;;;;;;;;;;5023923;28;20514;-69
2021/03/02 02:05:46;;;;;;;71.70;33.72;;;;;;;;;;5032858;28;20586;-69
2021/03/02 02:08:13;;;;;;;66.82;32.38;;;;;;;;;;5034764;28;20046;-70
2021/03/02 02:10:42;;;;;;;72.35;32.50;;;;;;;;;;5020958;28;20034;-69
2021/03/02 02:13:10;;;;;;;72.82;33.53;;;;;;;;;;5031447;28;20018;-70
2021/03/02 02:15:38;;;;;;;68.60;32.97;;;;;;;;;;5030844;28;20036;-69
2021/03/02 02:18:06;;;;;;;76.55;33.90;;;;;;;;;;5030016;28;20033;-70
2021/03/02 02:20:35;;;;;;;70.88;31.23;;;;;;;;;;5030554;28;20021;-69
2021/03/02 02:23:20;;;;;;;74.72;35.38;;;;;;;;;;5022460;28;20029;-70
2021/03/02 02:25:52;;;;;;;77.63;36.38;;;;;;;;;;5021203;28;20479;-70
2021/03/02 02:28:19;;;;;;;65.78;33.22;;;;;;;;;;5026276;28;20048;-70
2021/03/02 02:30:47;;;;;;;72.43;33.45;;;;;;;;;;5030983;28;20495;-70
2021/03/02 02:33:14;;;;;;;74.32;35.70;;;;;;;;;;5027816;28;20069;-70
2021/03/02 02:35:41;;;;;;;72.70;32.22;;;;;;;;;;5030123;28;20114;-69
2021/03/02 02:38:09;;;;;;;74.00;33.78;;;;;;;;;;5025077;28;20014;-69
2021/03/02 02:40:36;;;;;;;80.65;35.35;;;;;;;;;;5034936;28;20120;-69
2021/03/02 02:43:03;;;;;;;73.32;33.53;;;;;;;;;;5023987;28;20036;-69
2021/03/02 02:45:29;;;;;;;70.30;32.85;;;;;;;;;;5020011;28;20026;-69
2021/03/02 02:47:55;;;;;;;81.45;36.33;;;;;;;;;;5029398;28;20021;-69
2021/03/02 02:50:22;;;;;;;77.25;35.17;;;;;;;;;;5021760;28;20492;-69
2021/03/02 02:52:48;;;;;;;82.88;35.63;;;;;;;;;;5028049;28;20025;-69
2021/03/02 02:55:15;;;;;;;75.55;35.28;;;;;;;;;;5030766;28;20063;-70
2021/03/02 02:57:43;;;;;;;69.70;34.45;;;;;;;;;;5029781;28;20108;-69
2021/03/02 03:00:10;;;;;;;82.82;35.25;;;;;;;;;;5029515;28;20159;-69
2021/03/02 03:02:37;;;;;;;80.22;36.13;;;;;;;;;;5027876;28;20115;-70
2021/03/02 03:05:12;;;;;;;81.90;35.35;;;;;;;;;;5029598;28;20045;-69
2021/03/02 03:07:43;;;;;;;82.55;36.30;;;;;;;;;;5033076;28;20033;-69
2021/03/02 03:10:11;;;;;;;81.32;35.22;;;;;;;;;;5032075;28;20071;-69
2021/03/02 03:12:39;;;;;;;85.07;36.30;;;;;;;;;;5027200;28;20036;-69
2021/03/02 03:15:08;;;;;;;86.10;35.33;;;;;;;;;;5028329;28;20021;-69
2021/03/02 03:17:42;;;;;;;84.88;36.60;;;;;;;;;;5032049;28;20056;-70
2021/03/02 03:20:11;;;;;;;80.05;36.15;;;;;;;;;;5026319;28;20038;-69
2021/03/02 03:22:38;;;;;;;84.97;34.75;;;;;;;;;;5026405;28;20108;-69
2021/03/02 03:25:05;;;;;;;85.07;35.38;;;;;;;;;;5030254;28;20463;-69
2021/03/02 03:27:32;;;;;;;84.45;34.78;;;;;;;;;;5018851;28;20034;-69
2021/03/02 03:29:59;;;;;;;86.35;37.50;;;;;;;;;;5026917;28;20036;-69
2021/03/02 03:32:27;;;;;;;86.53;37.05;;;;;;;;;;5026680;28;20034;-69
2021/03/02 03:34:53;;;;;;;84.20;36.35;;;;;;;;;;5019354;28;20030;-70
2021/03/02 03:37:20;;;;;;;79.18;38.15;;;;;;;;;;5026970;28;20033;-70
2021/03/02 03:39:46;;;;;;;81.13;35.40;;;;;;;;;;5028013;28;20037;-70
2021/03/02 03:42:12;;;;;;;92.68;38.30;;;;;;;;;;5027043;28;20030;-70
2021/03/02 03:44:38;;;;;;;92.40;38.33;;;;;;;;;;5022051;28;20044;-69
2021/03/02 03:47:04;;;;;;;82.03;36.60;;;;;;;;;;5021429;28;20041;-70
2021/03/02 03:49:30;;;;;;;90.88;39.83;;;;;;;;;;5029954;28;20038;-70
2021/03/02 03:51:58;;;;;;;93.10;38.35;;;;;;;;;;5025654;28;20040;-70
2021/03/02 03:54:26;;;;;;;84.70;37.70;;;;;;;;;;5028750;28;20025;-69
2021/03/02 03:56:53;;;;;;;95.57;38.90;;;;;;;;;;5026585;28;20026;-70
2021/03/02 03:59:20;;;;;;;92.10;38.83;;;;;;;;;;5031152;28;20627;-70
2021/03/02 04:01:46;;;;;;;92.10;36.88;;;;;;;;;;5027150;28;20029;-70
2021/03/02 04:04:13;;;;;;;83.80;37.63;;;;;;;;;;5029090;28;20032;-70
2021/03/02 04:06:39;;;;;;;94.07;40.33;;;;;;;;;;5044485;28;20028;-70
2021/03/02 04:09:05;;;;;;;91.05;38.55;;;;;;;;;;5016859;28;20256;-70
2021/03/02 04:11:34;;;;;;;95.40;39.50;;;;;;;;;;5028432;28;20052;-70
2021/03/02 04:14:00;;;;;;;98.47;40.10;;;;;;;;;;5031391;28;20079;-70
2021/03/02 04:16:26;;;;;;;98.00;41.42;;;;;;;;;;5030603;28;20076;-70
2021/03/02 04:18:52;;;;;;;91.70;39.28;;;;;;;;;;5033181;28;20030;-70
2021/03/02 04:21:19;;;;;;;92.10;40.53;;;;;;;;;;5026889;28;20518;-70
2021/03/02 04:23:45;;;;;;;97.40;41.08;;;;;;;;;;5041115;28;20060;-70
2021/03/02 04:26:11;;;;;;;102.28;42.83;;;;;;;;;;5021779;28;20090;-70
2021/03/02 04:28:37;;;;;;;104.40;41.30;;;;;;;;;;5033071;28;20059;-70
2021/03/02 04:31:03;;;;;;;91.55;39.67;;;;;;;;;;5027025;28;20026;-70
2021/03/02 04:33:29;;;;;;;92.13;38.78;;;;;;;;;;5032825;28;20423;-69
2021/03/02 04:35:55;;;;;;;97.88;41.88;;;;;;;;;;5030899;28;20021;-70
2021/03/02 04:38:21;;;;;;;96.88;39.47;;;;;;;;;;5031534;28;20076;-70
2021/03/02 04:40:47;;;;;;;103.03;44.40;;;;;;;;;;5014916;28;20042;-70
2021/03/02 04:43:13;;;;;;;103.13;42.45;;;;;;;;;;5025629;28;20548;-70
2021/03/02 04:45:39;;;;;;;105.07;42.88;;;;;;;;;;5031614;28;20030;-70
2021/03/02 04:48:05;;;;;;;99.63;42.10;;;;;;;;;;5027546;28;20025;-70
2021/03/02 04:50:31;;;;;;;110.20;44.38;;;;;;;;;;5037843;28;20109;-69
2021/03/02 04:52:57;;;;;;;112.15;41.88;;;;;;;;;;5037959;28;20025;-70
2021/03/02 04:55:23;;;;;;;99.55;40.10;;;;;;;;;;5031197;28;20033;-70
2021/03/02 04:57:49;;;;;;;101.35;39.65;;;;;;;;;;5026954;28;20037;-70
2021/03/02 05:00:16;;;;;;;96.93;40.47;;;;;;;;;;5028732;28;20033;-70
2021/03/02 05:02:42;;;;;;;97.88;39.65;;;;;;;;;;5026842;28;20514;-70
2021/03/02 05:05:08;;;;;;;101.13;40.33;;;;;;;;;;5037455;28;20036;-70
2021/03/02 05:07:34;;;;;;;104.13;45.88;;;;;;;;;;5038259;28;20025;-70
2021/03/02 05:10:01;;;;;;;103.90;42.85;;;;;;;;;;5033952;28;20041;-70
2021/03/02 05:12:27;;;;;;;109.35;44.60;;;;;;;;;;5021548;28;20025;-70
2021/03/02 05:14:53;;;;;;;109.80;45.75;;;;;;;;;;5026183;28;20045;-70
2021/03/02 05:17:19;;;;;;;102.80;43.03;;;;;;;;;;5029746;28;20029;-70
2021/03/02 05:19:45;;;;;;;109.53;43.92;;;;;;;;;;5032426;28;20036;-70
2021/03/02 05:22:12;;;;;;;94.40;39.28;;;;;;;;;;5030370;28;20029;-70
2021/03/02 05:24:38;;;;;;;103.25;42.85;;;;;;;;;;5021572;28;20056;-70
2021/03/02 05:27:04;;;;;;;98.15;38.75;;;;;;;;;;5021955;28;20079;-70
2021/03/02 05:29:30;;;;;;;96.40;39.65;;;;;;;;;;5031033;28;20082;-70
2021/03/02 05:31:56;;;;;;;110.38;41.50;;;;;;;;;;5024016;28;20033;-70
2021/03/02 05:34:22;;;;;;;98.05;40.85;;;;;;;;;;5030702;28;20053;-70
2021/03/02 05:36:48;;;;;;;102.13;42.15;;;;;;;;;;5020847;28;20029;-70
2021/03/02 05:39:14;;;;;;;105.20;42.20;;;;;;;;;;5021318;28;20037;-70
2021/03/02 05:41:41;;;;;;;104.32;46.35;;;;;;;;;;5024968;28;20116;-70
2021/03/02 05:44:10;;;;;;;108.10;41.72;;;;;;;;;;5030607;28;20032;-70
2021/03/02 05:46:37;;;;;;;105.50;43.28;;;;;;;;;;5027456;28;20034;-70
2021/03/02 05:49:03;;;;;;;109.70;42.20;;;;;;;;;;5026812;28;20136;-70
2021/03/02 05:51:29;;;;;;;103.15;43.22;;;;;;;;;;5034644;28;20060;-70
2021/03/02 05:53:56;;;;;;;109.85;45.47;;;;;;;;;;5044067;28;20025;-70
2021/03/02 05:56:22;;;;;;;117.78;46.50;;;;;;;;;;5027866;28;20044;-70
2021/03/02 05:58:51;;;;;;;111.30;43.25;;;;;;;;;;5029209;28;20036;-70
2021/03/02 06:01:17;;;;;;;104.85;43.72;;;;;;;;;;5028602;28;20415;-70
2021/03/02 06:03:43;;;;;;;109.85;42.88;;;;;;;;;;5043632;28;20032;-70
2021/03/02 06:06:09;;;;;;;109.82;44.30;;;;;;;;;;5034069;28;20040;-70
2021/03/02 06:08:35;;;;;;;103.28;44.55;;;;;;;;;;5035157;28;20503;-70
2021/03/02 06:11:20;;;;;;;103.85;42.38;;;;;;;;;;5025461;28;20442;-70
2021/03/02 06:13:46;;;;;;;110.40;46.30;;;;;;;;;;5018311;28;20110;-70
2021/03/02 06:16:12;;;;;;;108.65;43.88;;;;;;;;;;5023790;28;20030;-69
2021/03/02 06:18:46;;;;;;;121.85;47.17;;;;;;;;;;5023667;28;20033;-70
2021/03/02 06:21:12;;;;;;;93.28;40.10;;;;;;;;;;5015695;28;20064;-69
2021/03/02 06:23:45;;;;;;;94.45;39.75;;;;;;;;;;5025347;28;20506;-69
2021/03/02 06:26:11;;;;;;;92.57;39.97;;;;;;;;;;5018900;28;20032;-70
2021/03/02 06:28:39;;;;;;;115.05;49.55;;;;;;;;;;5031664;28;20025;-70
2021/03/02 06:31:05;;;;;;;100.80;40.22;;;;;;;;;;5026000;28;20038;-69
2021/03/02 06:33:31;;;;;;;102.30;41.90;;;;;;;;;;5022969;28;20047;-69
2021/03/02 06:35:57;;;;;;;112.72;42.72;;;;;;;;;;5028674;28;20488;-69
2021/03/02 06:38:34;;;;;;;96.85;40.60;;;;;;;;;;5029940;28;20033;-69
2021/03/02 06:41:01;;;;;;;115.28;44.97;;;;;;;;;;5020276;28;20033;-69
2021/03/02 06:43:30;;;;;;;113.05;44.47;;;;;;;;;;5023958;28;20561;-69
2021/03/02 06:45:56;;;;;;;101.50;41.63;;;;;;;;;;5030657;28;20083;-69
2021/03/02 06:48:23;;;;;;;102.38;39.88;;;;;;;;;;5034828;28;20123;-69
2021/03/02 06:50:49;;;;;;;91.47;38.78;;;;;;;;;;5026520;28;20037;-69
2021/03/02 06:53:15;;;;;;;101.82;40.80;;;;;;;;;;5036239;28;20021;-69
2021/03/02 06:55:41;;;;;;;100.97;39.50;;;;;;;;;;5037012;28;20024;-69
2021/03/02 06:58:24;;;;;;;97.05;38.75;;;;;;;;;;5023227;28;20030;-69
2021/03/02 07:00:50;;;;;;;102.05;41.05;;;;;;;;;;5013509;28;20058;-69
2021/03/02 07:03:25;;;;;;;106.40;41.47;;;;;;;;;;5030613;28;20027;-69
2021/03/02 07:05:51;;;;;;;94.25;40.83;;;;;;;;;;5021498;28;20027;-69
2021/03/02 07:08:17;;;;;;;86.57;37.22;;;;;;;;;;5039410;28;20065;-69
2021/03/02 07:10:49;;;;;;;98.20;39.38;;;;;;;;;;5018358;28;20116;-69
2021/03/02 07:13:15;;;;;;;103.53;42.22;;;;;;;;;;5029924;28;20534;-69
2021/03/02 07:15:42;;;;;;;92.25;42.05;;;;;;;;;;5023074;28;20029;-69
2021/03/02 07:18:10;;;;;;;98.63;42.92;;;;;;;;;;5019948;28;20050;-69
2021/03/02 07:20:38;;;;;;;95.40;38.80;;;;;;;;;;5020106;28;20029;-69
2021/03/02 07:23:05;;;;;;;83.47;37.55;;;;;;;;;;5021383;28;20029;-69
2021/03/02 07:25:32;;;;;;;94.18;40.53;;;;;;;;;;5028674;28;20561;-69
2021/03/02 07:28:00;;;;;;;90.47;40.97;;;;;;;;;;5024597;28;20492;-69
2021/03/02 07:30:26;;;;;;;89.18;40.28;;;;;;;;;;5019505;28;20033;-69
2021/03/02 07:32:52;;;;;;;79.85;37.65;;;;;;;;;;5028914;28;20037;-69
2021/03/02 07:35:20;;;;;;;89.88;39.17;;;;;;;;;;5030762;28;20044;-69
2021/03/02 07:37:46;;;;;;;83.00;38.80;;;;;;;;;;5028973;28;20028;-69
2021/03/02 07:40:13;;;;;;;81.43;38.85;;;;;;;;;;5024575;28;20025;-69
2021/03/02 07:42:39;;;;;;;71.18;40.65;;;;;;;;;;5040195;28;20035;-69
2021/03/02 07:45:12;;;;;;;66.30;33.88;;;;;;;;;;5034621;28;20113;-69
2021/03/02 07:47:42;;;;;;;73.25;35.17;;;;;;;;;;5024392;28;20036;-70
2021/03/02 07:50:15;;;;;;;68.22;33.45;;;;;;;;;;5029363;28;20030;-69
2021/03/02 07:52:41;;;;;;;60.38;32.28;;;;;;;;;;5044007;28;20032;-70
2021/03/02 07:55:16;;;;;;;66.93;32.60;;;;;;;;;;5023442;28;20036;-70
2021/03/02 07:57:42;;;;;;;64.18;33.58;;;;;;;;;;5037562;28;20510;-70
2021/03/02 08:00:14;;;;;;;64.10;31.52;;;;;;;;;;5030209;28;20110;-70
2021/03/02 08:02:40;;;;;;;48.13;28.85;;;;;;;;;;5033012;28;20028;-70
2021/03/02 08:05:25;;;;;;;47.42;27.60;;;;;;;;;;5036949;28;20036;-70
2021/03/02 08:07:51;;;;;;;45.72;23.52;;;;;;;;;;5027102;28;20092;-70
2021/03/02 08:10:34;;;;;;;58.38;26.40;;;;;;;;;;5025989;28;20030;-70
2021/03/02 08:13:20;;;;;;;49.90;26.13;;;;;;;;;;5022263;28;20037;-70
2021/03/02 08:15:46;;;;;;;46.83;26.52;;;;;;;;;;5024613;28;20026;-70
2021/03/02 08:18:27;;;;;;;46.80;23.55;;;;;;;;;;5028632;28;20491;-70
2021/03/02 08:21:07;;;;;;;35.53;18.55;;;;;;;;;;5030262;28;20025;-70
2021/03/02 08:23:48;;;;;;;44.08;24.33;;;;;;;;;;5027358;28;20030;-70
2021/03/02 08:26:24;;;;;;;39.70;23.08;;;;;;;;;;5034559;28;20030;-70
2021/03/02 08:29:09;;;;;;;42.85;23.45;;;;;;;;;;5029071;28;20026;-70
2021/03/02 08:31:36;;;;;;;43.88;25.30;;;;;;;;;;5027250;28;20021;-70
2021/03/02 08:34:03;;;;;;;43.15;25.20;;;;;;;;;;5030023;28;20029;-70
2021/03/02 08:36:29;;;;;;;41.72;25.25;;;;;;;;;;5030285;28;20036;-70
2021/03/02 08:38:55;;;;;;;41.78;21.95;;;;;;;;;;5030779;28;20041;-71
2021/03/02 08:41:35;;;;;;;39.42;22.27;;;;;;;;;;5026370;28;20030;-71
2021/03/02 08:44:02;;;;;;;38.22;24.35;;;;;;;;;;5028690;28;20021;-71
2021/03/02 08:46:30;;;;;;;42.22;23.85;;;;;;;;;;5035737;28;20075;-70
2021/03/02 08:48:56;;;;;;;42.70;23.13;;;;;;;;;;5033281;28;20017;-70
2021/03/02 08:51:23;;;;;;;38.72;21.85;;;;;;;;;;5024271;28;20088;-70
2021/03/02 08:53:50;;;;;;;37.00;21.42;;;;;;;;;;5021011;28;20018;-71
2021/03/02 08:56:19;;;;;;;42.60;23.70;;;;;;;;;;5027822;28;20061;-70
2021/03/02 08:58:51;;;;;;;37.47;22.30;;;;;;;;;;5022835;28;20676;-70
2021/03/02 09:01:23;;;;;;;39.63;22.63;;;;;;;;;;5025994;28;20056;-70
2021/03/02 09:03:50;;;;;;;39.03;23.05;;;;;;;;;;5023800;28;20072;-70
2021/03/02 09:06:23;;;;;;;33.92;22.70;;;;;;;;;;5022517;28;20095;-71
2021/03/02 09:08:51;;;;;;;37.15;21.60;;;;;;;;;;5021335;28;20412;-71
2021/03/02 09:11:18;;;;;;;37.63;22.30;;;;;;;;;;5029390;28;20116;-70
2021/03/02 09:13:44;;;;;;;33.75;19.83;;;;;;;;;;5026015;28;20022;-70
2021/03/02 09:16:27;;;;;;;38.08;22.40;;;;;;;;;;5022996;28;20400;-71
2021/03/02 09:19:04;;;;;;;38.00;23.67;;;;;;;;;;5021446;28;20028;-70
2021/03/02 09:21:30;;;;;;;39.20;23.85;;;;;;;;;;5026146;28;20083;-70
2021/03/02 09:23:56;;;;;;;41.72;23.88;;;;;;;;;;5031453;28;20029;-70
2021/03/02 09:26:23;;;;;;;37.22;23.92;;;;;;;;;;5026455;28;20142;-70
2021/03/02 09:28:57;;;;;;;40.55;23.15;;;;;;;;;;5025743;28;20027;-70
2021/03/02 09:31:23;;;;;;;35.65;20.83;;;;;;;;;;5030230;28;20037;-71
2021/03/02 09:33:50;;;;;;;36.88;22.73;;;;;;;;;;5028384;28;20088;-70
2021/03/02 09:36:16;;;;;;;37.20;20.80;;;;;;;;;;5023385;28;20030;-71
2021/03/02 09:38:43;;;;;;;37.05;20.92;;;;;;;;;;5041578;28;20526;-70
2021/03/02 09:41:09;;;;;;;36.55;19.15;;;;;;;;;;5019218;28;20097;-70
2021/03/02 09:43:35;;;;;;;38.50;22.38;;;;;;;;;;5031580;28;20021;-71
2021/03/02 09:46:01;;;;;;;40.35;19.23;;;;;;;;;;5023693;28;20087;-70
2021/03/02 09:48:28;;;;;;;35.70;22.25;;;;;;;;;;5026078;28;20076;-71
2021/03/02 09:50:54;;;;;;;35.60;21.13;;;;;;;;;;5018685;28;20026;-71
2021/03/02 09:53:20;;;;;;;38.53;20.90;;;;;;;;;;5020325;28;20029;-70
2021/03/02 09:55:47;;;;;;;36.55;22.13;;;;;;;;;;5022802;28;20084;-71
2021/03/02 09:58:17;;;;;;;35.95;18.38;;;;;;;;;;5024053;28;20038;-70
2021/03/02 10:00:49;;;;;;;37.65;21.20;;;;;;;;;;5019676;28;20440;-71
2021/03/02 10:03:25;;;;;;;41.35;21.35;;;;;;;;;;5018955;28;20479;-70
2021/03/02 10:05:54;;;;;;;37.20;22.15;;;;;;;;;;5024630;28;20037;-71
2021/03/02 10:08:21;;;;;;;37.53;19.10;;;;;;;;;;5026491;28;20020;-70
2021/03/02 10:10:48;;;;;;;35.03;22.13;;;;;;;;;;5023768;28;20020;-71
2021/03/02 10:13:21;;;;;;;36.00;20.77;;;;;;;;;;5025935;28;20495;-70
2021/03/02 10:15:47;;;;;;;36.03;21.02;;;;;;;;;;5027187;28;20259;-70
2021/03/02 10:18:26;;;;;;;42.00;20.70;;;;;;;;;;5022054;28;20057;-71
2021/03/02 10:21:21;;;;;;;37.88;22.17;;;;;;;;;;5024430;28;20022;-71
2021/03/02 10:23:50;;;;;;;33.60;20.88;;;;;;;;;;5026984;28;20465;-71
2021/03/02 10:26:20;;;;;;;33.78;17.67;;;;;;;;;;5025799;28;20537;-70
2021/03/02 10:28:46;;;;;;;33.38;19.58;;;;;;;;;;5022371;28;20025;-71
2021/03/02 10:31:12;;;;;;;38.70;22.70;;;;;;;;;;5026621;28;20033;-70
2021/03/02 10:33:38;;;;;;;35.40;19.45;;;;;;;;;;5027862;28;20021;-70
2021/03/02 10:36:04;;;;;;;34.70;20.13;;;;;;;;;;5022215;28;20034;-70
2021/03/02 10:38:30;;;;;;;32.20;15.82;;;;;;;;;;5021661;28;20044;-70
2021/03/02 10:40:56;;;;;;;34.05;18.90;;;;;;;;;;5024279;28;20036;-71
2021/03/02 10:43:22;;;;;;;30.92;19.30;;;;;;;;;;5023491;28;20053;-70
2021/03/02 10:45:48;;;;;;;34.28;20.48;;;;;;;;;;5022275;28;20018;-71
2021/03/02 10:48:14;;;;;;;37.60;20.23;;;;;;;;;;5021819;28;20029;-70
2021/03/02 10:50:40;;;;;;;38.00;20.55;;;;;;;;;;5018764;28;20018;-70
2021/03/02 10:53:06;;;;;;;35.85;20.50;;;;;;;;;;5024362;28;20080;-70
2021/03/02 10:55:33;;;;;;;37.00;20.55;;;;;;;;;;5022952;28;20025;-70
2021/03/02 10:57:59;;;;;;;32.53;19.02;;;;;;;;;;5027497;28;20025;-70
2021/03/02 11:00:25;;;;;;;32.40;20.30;;;;;;;;;;5019707;28;20095;-70
2021/03/02 11:02:51;;;;;;;32.13;18.65;;;;;;;;;;5028546;28;20021;-71
2021/03/02 11:05:17;;;;;;;34.47;20.38;;;;;;;;;;5023884;28;20444;-71
2021/03/02 11:07:43;;;;;;;35.60;20.25;;;;;;;;;;5015411;28;20038;-71
2021/03/02 11:10:09;;;;;;;34.28;19.52;;;;;;;;;;5026805;28;20072;-70
2021/03/02 11:12:35;;;;;;;34.42;18.05;;;;;;;;;;5024142;28;20541;-70
2021/03/02 11:15:01;;;;;;;35.28;18.35;;;;;;;;;;5028206;28;20080;-70
2021/03/02 11:17:27;;;;;;;35.58;19.67;;;;;;;;;;5030490;28;20022;-70
2021/03/02 11:19:53;;;;;;;38.55;19.05;;;;;;;;;;5018427;28;20026;-70
2021/03/02 11:22:19;;;;;;;34.72;19.58;;;;;;;;;;5022719;28;20037;-70
2021/03/02 11:24:46;;;;;;;30.73;18.13;;;;;;;;;;5026793;28;20163;-70
2021/03/02 11:27:12;;;;;;;29.73;17.42;;;;;;;;;;5024738;28;20026;-70
2021/03/02 11:29:39;;;;;;;30.30;17.50;;;;;;;;;;5019771;28;20491;-70
2021/03/02 11:32:05;;;;;;;30.38;18.27;;;;;;;;;;5019187;28;20032;-70
2021/03/02 11:34:32;;;;;;;35.50;19.73;;;;;;;;;;5021994;28;20136;-70
2021/03/02 11:36:58;;;;;;;31.17;20.10;;;;;;;;;;5018651;28;20047;-71
2021/03/02 11:39:24;;;;;;;36.17;21.25;;;;;;;;;;5017573;28;20022;-70
2021/03/02 11:41:50;;;;;;;36.40;20.77;;;;;;;;;;5025764;28;20029;-71
2021/03/02 11:44:16;;;;;;;35.58;20.95;;;;;;;;;;5019582;28;20061;-70
2021/03/02 11:46:42;;;;;;;32.22;19.00;;;;;;;;;;5023858;28;20025;-71
2021/03/02 11:49:08;;;;;;;30.13;18.98;;;;;;;;;;5021076;28;20029;-71
2021/03/02 11:51:35;;;;;;;33.42;17.23;;;;;;;;;;5017965;28;20038;-70
2021/03/02 11:54:01;;;;;;;34.50;19.33;;;;;;;;;;5016583;28;20025;-71
2021/03/02 11:56:27;;;;;;;31.90;17.65;;;;;;;;;;5012328;28;20049;-70
2021/03/02 11:58:53;;;;;;;33.60;19.02;;;;;;;;;;5013704;28;20021;-70
2021/03/02 12:01:19;;;;;;;30.50;18.15;;;;;;;;;;5025155;28;20037;-70
2021/03/02 12:03:45;;;;;;;32.45;17.92;;;;;;;;;;5017814;28;20036;-70
2021/03/02 12:06:11;;;;;;;28.75;17.55;;;;;;;;;;5015224;28;20172;-70
2021/03/02 12:08:37;;;;;;;35.33;18.50;;;;;;;;;;5012331;28;20034;-70
2021/03/02 12:11:04;;;;;;;36.05;18.92;;;;;;;;;;5016480;28;20044;-70
2021/03/02 12:13:30;;;;;;;30.73;16.67;;;;;;;;;;5015126;28;20034;-70
2021/03/02 12:15:56;;;;;;;32.45;18.23;;;;;;;;;;5014540;28;20036;-70
2021/03/02 12:18:22;;;;;;;32.40;17.15;;;;;;;;;;5019373;28;20061;-70
2021/03/02 12:20:48;;;;;;;32.17;18.80;;;;;;;;;;5015218;28;20033;-71
2021/03/02 12:23:14;;;;;;;31.83;16.58;;;;;;;;;;5019628;28;20021;-70
2021/03/02 12:25:40;;;;;;;31.88;18.20;;;;;;;;;;5019656;28;20068;-70
2021/03/02 12:28:06;;;;;;;32.40;16.88;;;;;;;;;;5014556;28;20064;-71
2021/03/02 12:30:33;;;;;;;31.25;17.58;;;;;;;;;;5018811;28;20915;-70
2021/03/02 12:33:00;;;;;;;29.85;16.75;;;;;;;;;;5018725;28;20037;-70
2021/03/02 12:35:26;;;;;;;29.80;15.80;;;;;;;;;;5020985;28;20117;-70
2021/03/02 12:37:52;;;;;;;31.30;19.25;;;;;;;;;;5021400;28;20019;-70
2021/03/02 12:40:19;;;;;;;28.02;16.55;;;;;;;;;;5017621;28;20083;-70
2021/03/02 12:42:45;;;;;;;28.55;16.33;;;;;;;;;;5019734;28;20022;-70
2021/03/02 12:45:11;;;;;;;30.38;17.42;;;;;;;;;;5022038;28;20696;-70
2021/03/02 12:47:37;;;;;;;34.78;19.55;;;;;;;;;;5020341;28;20034;-70
2021/03/02 12:50:08;;;;;;;32.72;20.23;;;;;;;;;;5022768;28;20026;-71
2021/03/02 12:52:34;;;;;;;32.22;19.42;;;;;;;;;;5021077;28;20120;-71
2021/03/02 12:55:00;;;;;;;31.65;17.42;;;;;;;;;;5018397;28;20033;-70
2021/03/02 12:57:26;;;;;;;28.13;16.98;;;;;;;;;;5018496;28;22082;-70
2021/03/02 12:59:52;;;;;;;31.70;18.35;;;;;;;;;;5016458;28;20435;-71
2021/03/02 13:02:18;;;;;;;29.38;19.23;;;;;;;;;;5016705;28;20081;-68
2021/03/02 13:04:45;;;;;;;32.28;18.52;;;;;;;;;;5021484;28;20101;-69
2021/03/02 13:07:12;;;;;;;33.92;19.08;;;;;;;;;;5020230;28;20506;-69
2021/03/02 13:09:38;;;;;;;33.17;17.95;;;;;;;;;;5021995;28;20048;-69
2021/03/02 13:12:04;;;;;;;36.47;22.67;;;;;;;;;;5016538;28;20049;-68
2021/03/02 13:14:30;;;;;;;33.25;20.67;;;;;;;;;;5021013;28;20194;-69
2021/03/02 13:16:56;;;;;;;37.45;22.60;;;;;;;;;;5017536;28;20509;-69
2021/03/02 13:19:23;;;;;;;36.17;22.23;;;;;;;;;;5017359;28;20036;-68
2021/03/02 13:21:49;;;;;;;38.75;22.65;;;;;;;;;;5017819;28;20037;-68
2021/03/02 13:24:15;;;;;;;39.10;23.67;;;;;;;;;;5023545;28;20033;-72
2021/03/02 13:26:41;;;;;;;36.13;21.15;;;;;;;;;;5025513;28;20029;-69
2021/03/02 13:29:10;;;;;;;33.67;19.90;;;;;;;;;;5019653;28;20025;-70
2021/03/02 13:31:36;;;;;;;35.35;21.40;;;;;;;;;;5025837;28;20819;-70
2021/03/02 13:34:03;;;;;;;42.25;19.63;;;;;;;;;;5023028;28;20651;-69
2021/03/02 13:36:29;;;;;;;37.60;20.95;;;;;;;;;;5019554;28;20032;-69
2021/03/02 13:38:58;;;;;;;37.70;22.23;;;;;;;;;;5015664;28;20510;-69
2021/03/02 13:41:24;;;;;;;32.35;21.02;;;;;;;;;;5018219;28;20053;-68
2021/03/02 13:43:51;;;;;;;34.40;22.55;;;;;;;;;;5018427;28;20176;-69
2021/03/02 13:46:17;;;;;;;38.97;21.27;;;;;;;;;;5017202;28;20054;-68
2021/03/02 13:48:45;;;;;;;34.70;22.55;;;;;;;;;;5017490;28;20052;-68
2021/03/02 13:51:11;;;;;;;39.13;22.33;;;;;;;;;;5016820;28;20486;-69
2021/03/02 13:53:37;;;;;;;38.08;21.15;;;;;;;;;;5025028;28;20128;-68
2021/03/02 13:56:04;;;;;;;36.17;22.83;;;;;;;;;;5022634;28;20047;-68
2021/03/02 13:58:30;;;;;;;34.40;21.17;;;;;;;;;;5025677;28;20581;-69
2021/03/02 14:00:56;;;;;;;36.83;20.65;;;;;;;;;;5028824;28;20037;-68
2021/03/02 14:03:22;;;;;;;35.08;22.17;;;;;;;;;;5026801;28;20496;-69
2021/03/02 14:05:50;;;;;;;35.45;22.58;;;;;;;;;;5032795;28;20514;-69
2021/03/02 14:08:17;;;;;;;36.00;21.30;;;;;;;;;;5017616;28;20033;-68
2021/03/02 14:10:44;;;;;;;37.47;22.20;;;;;;;;;;5020314;28;20118;-69
2021/03/02 14:13:10;;;;;;;35.10;22.83;;;;;;;;;;5025219;28;20136;-69
2021/03/02 14:15:36;;;;;;;37.45;23.48;;;;;;;;;;5021466;28;20028;-68
2021/03/02 14:18:03;;;;;;;39.58;24.85;;;;;;;;;;5018076;28;20079;-69